Time;durP1;ratioP1;P1;durP2;ratioP2;P2;SDS_P1;SDS_P2;PMS_P1;PMS_P2;Temp;Humidity;BMP_temperature;BMP_pressure;BME280_temperature;BME280_humidity;BME280_pressure;Samples;Min_cycle;Max_cycle;Signal;HPM_P1;HPM_P2
2021/09/14 00:00:37;;;;;;;13.30;12.10;;;18.80;99.90;;;;;;6158726;23;20406;-85
2021/09/14 00:03:09;;;;;;;12.53;11.33;;;18.70;99.90;;;;;;6193041;23;20436;-85
2021/09/14 00:05:40;;;;;;;12.70;11.60;;;18.70;99.90;;;;;;6193957;23;20517;-83
2021/09/14 00:08:10;;;;;;;12.57;11.37;;;18.70;99.90;;;;;;6161671;23;20446;-83
2021/09/14 00:10:43;;;;;;;12.57;11.37;;;18.60;99.90;;;;;;6183258;23;20468;-84
2021/09/14 00:13:10;;;;;;;12.97;11.83;;;18.50;99.90;;;;;;6183852;23;20935;-84
2021/09/14 00:15:45;;;;;;;12.17;10.90;;;18.60;99.90;;;;;;6158377;23;20430;-82
2021/09/14 00:18:26;;;;;;;12.10;11.00;;;18.50;99.90;;;;;;6203547;23;20465;-86
2021/09/14 00:20:57;;;;;;;12.13;11.13;;;18.40;99.90;;;;;;6176105;23;20402;-85
2021/09/14 00:23:31;;;;;;;12.60;11.30;;;18.60;99.90;;;;;;6201077;23;20429;-86
2021/09/14 00:26:02;;;;;;;12.30;11.03;;;18.50;99.90;;;;;;6166662;23;20437;-86
2021/09/14 00:28:37;;;;;;;12.27;11.07;;;18.30;99.90;;;;;;6159521;23;20576;-86
2021/09/14 00:31:06;;;;;;;11.93;10.80;;;18.20;99.90;;;;;;6157837;23;20476;-83
2021/09/14 00:33:36;;;;;;;12.23;11.03;;;18.30;99.90;;;;;;6157917;23;20413;-84
2021/09/14 00:36:06;;;;;;;10.80;9.90;;;18.50;99.90;;;;;;6156822;23;20434;-84
2021/09/14 00:38:33;;;;;;;12.13;10.43;;;18.30;99.90;;;;;;6158566;23;20706;-86
2021/09/14 00:41:02;;;;;;;11.70;10.10;;;18.40;99.90;;;;;;6159051;23;20984;-83
2021/09/14 00:43:31;;;;;;;13.60;12.40;;;18.30;99.90;;;;;;6156720;23;20420;-84
2021/09/14 00:46:01;;;;;;;12.53;11.33;;;18.30;99.90;;;;;;6155385;23;20609;-83
2021/09/14 00:48:35;;;;;;;12.30;11.20;;;18.50;99.90;;;;;;6160988;23;20556;-85
2021/09/14 00:51:06;;;;;;;12.30;11.00;;;18.50;99.90;;;;;;6136051;23;20401;-84
2021/09/14 00:53:36;;;;;;;11.73;10.80;;;18.40;99.90;;;;;;6157900;23;20433;-84
2021/09/14 00:56:03;;;;;;;11.23;10.23;;;18.20;99.90;;;;;;6184569;23;20426;-85
2021/09/14 00:59:07;;;;;;;11.50;10.50;;;18.10;99.90;;;;;;6159513;23;20444;-83
2021/09/14 01:01:46;;;;;;;12.30;11.30;;;18.00;99.90;;;;;;6184235;23;21215;-86
2021/09/14 01:04:13;;;;;;;11.90;10.77;;;18.00;99.90;;;;;;6158650;23;20418;-85
2021/09/14 01:06:43;;;;;;;11.77;10.77;;;18.20;99.90;;;;;;6157226;23;20533;-85
2021/09/14 01:09:16;;;;;;;12.40;11.30;;;18.20;99.90;;;;;;6185044;23;20393;-84
2021/09/14 01:11:58;;;;;;;11.80;10.70;;;18.20;99.90;;;;;;6186009;23;20458;-83
2021/09/14 01:14:27;;;;;;;11.53;9.57;;;18.30;99.90;;;;;;6184599;23;20820;-84
2021/09/14 01:17:06;;;;;;;10.00;9.10;;;18.30;99.90;;;;;;6185793;23;20441;-84
2021/09/14 01:19:37;;;;;;;10.13;9.23;;;18.20;99.90;;;;;;6185403;23;20414;-84
2021/09/14 01:22:04;;;;;;;10.93;9.97;;;18.20;99.90;;;;;;6185603;23;20486;-84
2021/09/14 01:24:37;;;;;;;11.17;10.07;;;18.10;99.90;;;;;;6184983;23;20410;-83
2021/09/14 01:27:17;;;;;;;11.00;10.10;;;18.20;99.90;;;;;;6182210;23;20500;-83
2021/09/14 01:30:12;;;;;;;11.10;10.00;;;18.10;99.90;;;;;;6152624;23;20944;-83
2021/09/14 01:32:46;;;;;;;11.17;10.07;;;18.10;99.90;;;;;;6153181;23;20445;-85
2021/09/14 01:35:25;;;;;;;10.63;9.83;;;18.00;99.90;;;;;;6177429;23;20425;-84
2021/09/14 01:38:02;;;;;;;10.47;9.30;;;18.00;99.90;;;;;;6155210;23;20409;-84
2021/09/14 01:40:32;;;;;;;10.60;9.60;;;18.30;99.90;;;;;;6157635;23;20930;-87
2021/09/14 01:43:08;;;;;;;11.87;10.87;;;18.30;99.90;;;;;;6154655;23;20414;-84
2021/09/14 01:45:43;;;;;;;11.00;10.10;;;18.30;99.90;;;;;;6182855;23;20536;-83
2021/09/14 01:48:24;;;;;;;11.70;10.50;;;18.10;99.90;;;;;;6179033;23;20449;-86
2021/09/14 01:50:53;;;;;;;10.83;9.70;;;18.20;99.90;;;;;;6180532;23;20412;-84
2021/09/14 01:53:25;;;;;;;10.63;9.60;;;18.30;99.90;;;;;;6153268;23;20858;-84
2021/09/14 01:56:13;;;;;;;10.33;9.33;;;18.10;99.90;;;;;;6151651;23;20944;-83
2021/09/14 01:58:42;;;;;;;10.77;9.87;;;18.10;99.90;;;;;;6152075;23;20393;-82
2021/09/14 02:01:32;;;;;;;11.13;10.10;;;18.30;99.90;;;;;;6155304;23;20467;-82
2021/09/14 02:07:44;;;;;;;10.87;9.87;;;18.10;99.90;;;;;;6173302;23;20470;-84
2021/09/14 02:30:17;;;;;;;12.90;11.60;;;17.80;99.90;;;;;;6183756;23;20452;-84
2021/09/14 02:42:43;;;;;;;13.40;11.50;;;17.80;99.90;;;;;;6179929;23;20453;-84
2021/09/14 03:00:19;;;;;;;15.70;12.27;;;17.70;99.90;;;;;;6057028;23;20412;-85
2021/09/14 03:02:46;;;;;;;15.50;12.67;;;17.60;99.90;;;;;;6052228;23;20409;-84
2021/09/14 03:05:22;;;;;;;17.30;12.83;;;17.70;99.90;;;;;;6065650;23;21119;-84
2021/09/14 03:07:51;;;;;;;16.30;12.20;;;17.70;99.90;;;;;;6070480;23;20995;-86
2021/09/14 03:10:41;;;;;;;16.17;13.30;;;17.60;99.90;;;;;;6123272;23;20390;-84
2021/09/14 03:13:20;;;;;;;18.60;13.60;;;17.60;99.90;;;;;;6150193;23;20829;-86
2021/09/14 03:15:50;;;;;;;18.90;13.87;;;17.70;99.90;;;;;;6152450;23;20438;-85
2021/09/14 03:18:19;;;;;;;20.73;13.80;;;17.70;99.90;;;;;;6180939;23;20877;-85
2021/09/14 03:20:53;;;;;;;17.30;13.23;;;17.70;99.90;;;;;;6157066;23;20504;-85
2021/09/14 03:23:32;;;;;;;14.33;12.70;;;17.60;99.90;;;;;;6182623;23;20460;-84
2021/09/14 03:26:27;;;;;;;17.50;12.10;;;17.50;99.90;;;;;;6156505;23;20441;-85
2021/09/14 03:29:27;;;;;;;13.57;12.27;;;17.50;99.90;;;;;;6154019;23;20730;-84
2021/09/14 03:32:00;;;;;;;14.73;12.87;;;17.40;99.90;;;;;;6156392;23;20414;-86
2021/09/14 03:34:32;;;;;;;12.70;11.40;;;17.40;99.90;;;;;;6182979;23;20406;-85
2021/09/14 03:37:03;;;;;;;13.07;11.80;;;17.40;99.90;;;;;;6183100;23;20484;-85
2021/09/14 03:43:34;;;;;;;12.30;11.00;;;17.40;99.90;;;;;;6080954;23;21203;-83
2021/09/14 03:46:45;;;;;;;13.97;12.50;;;17.40;99.90;;;;;;6160835;23;20992;-90
2021/09/14 03:49:46;;;;;;;;;;;;;;;;;;;;;
2021/09/14 03:53:08;;;;;;;18.10;12.90;;;17.30;99.90;;;;;;6182770;23;20425;-86
2021/09/14 03:55:54;;;;;;;14.47;11.60;;;17.20;99.90;;;;;;6149587;23;20822;-85
2021/09/14 03:58:38;;;;;;;13.57;12.20;;;17.30;99.90;;;;;;6168429;23;20489;-87
2021/09/14 04:01:08;;;;;;;13.63;12.23;;;17.40;99.90;;;;;;6204946;23;20405;-88
2021/09/14 04:07:10;;;;;;;15.53;12.03;;;17.40;99.90;;;;;;6206696;23;20426;-86
2021/09/14 04:09:40;;;;;;;15.20;12.67;;;17.30;99.90;;;;;;6164254;23;20430;-85
2021/09/14 04:12:30;;;;;;;13.23;12.00;;;17.30;99.90;;;;;;6160965;23;20424;-86
2021/09/14 04:15:13;;;;;;;15.10;12.40;;;17.20;99.90;;;;;;6161401;23;20794;-84
2021/09/14 04:17:50;;;;;;;13.60;11.60;;;17.10;99.90;;;;;;6192420;23;20497;-85
2021/09/14 04:20:24;;;;;;;14.77;13.27;;;17.10;99.90;;;;;;6164425;23;20418;-85
2021/09/14 04:22:53;;;;;;;17.20;13.40;;;17.10;99.90;;;;;;6160608;23;20413;-85
2021/09/14 04:25:23;;;;;;;16.43;12.17;;;17.00;99.90;;;;;;6160978;23;20438;-85
2021/09/14 04:27:53;;;;;;;15.43;11.50;;;16.90;99.90;;;;;;6159530;23;20512;-86
2021/09/14 04:30:27;;;;;;;15.80;12.60;;;16.90;99.90;;;;;;6162545;23;20817;-85
2021/09/14 04:32:57;;;;;;;14.10;11.27;;;17.00;99.90;;;;;;6161463;23;20493;-85
2021/09/14 04:35:24;;;;;;;17.07;12.03;;;17.10;99.90;;;;;;6201151;23;20425;-86
2021/09/14 04:37:50;;;;;;;16.47;12.63;;;16.90;99.90;;;;;;6200560;23;20402;-86
2021/09/14 04:40:17;;;;;;;16.33;12.00;;;17.10;99.90;;;;;;6188968;23;20405;-85
2021/09/14 04:42:44;;;;;;;16.90;12.83;;;17.00;99.90;;;;;;6180550;23;20417;-84
2021/09/14 04:45:11;;;;;;;14.60;13.10;;;17.00;99.90;;;;;;6154044;23;20516;-85
2021/09/14 04:47:38;;;;;;;18.33;13.60;;;17.10;99.90;;;;;;6155920;23;20449;-86
2021/09/14 04:50:06;;;;;;;19.10;12.73;;;17.00;99.90;;;;;;6154464;23;20477;-85
2021/09/14 04:52:32;;;;;;;15.47;12.83;;;17.00;99.90;;;;;;6154318;23;20505;-85
2021/09/14 04:54:59;;;;;;;13.20;11.90;;;17.20;99.90;;;;;;6181817;23;20729;-85
2021/09/14 04:57:26;;;;;;;12.13;10.93;;;17.30;99.90;;;;;;6154350;23;20445;-85
2021/09/14 04:59:53;;;;;;;13.90;12.63;;;17.30;99.90;;;;;;6153535;23;20505;-85
2021/09/14 05:02:20;;;;;;;13.27;11.97;;;17.20;99.90;;;;;;6179069;23;20445;-84
2021/09/14 05:04:48;;;;;;;11.97;10.80;;;17.10;99.90;;;;;;6154241;23;20406;-85
2021/09/14 05:07:16;;;;;;;13.40;11.27;;;16.90;99.90;;;;;;6153214;23;20758;-85
2021/09/14 05:09:44;;;;;;;14.27;11.33;;;16.90;99.90;;;;;;6151569;23;20417;-84
2021/09/14 05:12:13;;;;;;;11.83;10.73;;;17.10;99.90;;;;;;6150006;23;20616;-86
2021/09/14 05:14:40;;;;;;;11.50;10.30;;;17.00;99.90;;;;;;6148305;23;20534;-85
2021/09/14 05:17:08;;;;;;;12.20;11.03;;;17.10;99.90;;;;;;6150711;23;20438;-85
2021/09/14 05:19:37;;;;;;;12.60;11.20;;;17.10;99.90;;;;;;6152566;23;20420;-85
2021/09/14 05:22:06;;;;;;;10.63;9.63;;;17.00;99.90;;;;;;6151317;23;20980;-87
2021/09/14 05:24:35;;;;;;;10.90;9.90;;;17.00;99.90;;;;;;6152189;23;20846;-85
2021/09/14 05:27:04;;;;;;;10.53;9.63;;;17.00;99.90;;;;;;6150929;23;20540;-85
2021/09/14 05:29:31;;;;;;;11.17;10.07;;;17.00;99.90;;;;;;6151870;23;20529;-84
2021/09/14 05:31:58;;;;;;;11.10;10.13;;;17.30;99.90;;;;;;6153022;23;20426;-86
2021/09/14 05:34:25;;;;;;;11.97;10.77;;;17.30;99.90;;;;;;6186056;23;20468;-85
2021/09/14 05:36:52;;;;;;;14.23;12.10;;;17.30;99.90;;;;;;6176628;23;20422;-84
2021/09/14 05:39:21;;;;;;;16.37;11.60;;;17.30;99.90;;;;;;6153146;23;20890;-85
2021/09/14 05:41:48;;;;;;;14.13;12.67;;;17.30;99.90;;;;;;6149837;23;20496;-85
2021/09/14 05:44:15;;;;;;;15.17;13.27;;;17.20;99.90;;;;;;6150057;23;20414;-85
2021/09/14 05:46:42;;;;;;;14.70;12.53;;;17.20;99.90;;;;;;6179180;23;20437;-84
2021/09/14 05:49:10;;;;;;;13.50;12.30;;;17.20;99.90;;;;;;6154532;23;20454;-85
2021/09/14 05:51:36;;;;;;;15.70;12.90;;;17.10;99.90;;;;;;6152569;23;20945;-85
2021/09/14 05:54:04;;;;;;;13.40;11.53;;;17.30;99.90;;;;;;6172723;23;20413;-86
2021/09/14 05:56:31;;;;;;;13.07;11.70;;;17.30;99.90;;;;;;6173721;23;20515;-86
2021/09/14 05:59:01;;;;;;;12.77;11.60;;;17.30;99.90;;;;;;6189592;23;20421;-85
2021/09/14 06:01:29;;;;;;;12.00;10.60;;;17.40;99.90;;;;;;6183374;23;20442;-85
2021/09/14 06:03:56;;;;;;;14.80;11.60;;;17.50;99.90;;;;;;6156612;23;20512;-84
2021/09/14 06:06:23;;;;;;;12.67;10.10;;;17.40;99.90;;;;;;6182450;23;20519;-84
2021/09/14 06:08:50;;;;;;;12.93;11.73;;;17.60;99.90;;;;;;6193782;23;20476;-86
2021/09/14 06:11:18;;;;;;;11.23;10.13;;;18.10;99.90;;;;;;6165576;23;20414;-84
2021/09/14 06:13:45;;;;;;;12.37;10.40;;;20.10;99.90;;;;;;6180795;23;20513;-88
2021/09/14 06:16:13;;;;;;;15.20;10.07;;;22.00;96.40;;;;;;6182556;23;20462;-84
2021/09/14 06:18:42;;;;;;;12.97;10.20;;;23.10;94.20;;;;;;6154973;23;20504;-84
2021/09/14 06:21:13;;;;;;;16.03;10.33;;;23.80;92.00;;;;;;6154069;23;20481;-83
2021/09/14 06:23:40;;;;;;;22.43;10.93;;;23.50;91.20;;;;;;6151985;23;20482;-85
2021/09/14 06:26:08;;;;;;;12.73;9.57;;;23.40;91.50;;;;;;6180940;23;20434;-85
2021/09/14 06:28:35;;;;;;;13.00;9.43;;;23.30;91.30;;;;;;6178271;23;20511;-86
2021/09/14 06:31:02;;;;;;;11.03;9.10;;;23.10;91.20;;;;;;6154173;23;20496;-83
2021/09/14 06:33:29;;;;;;;15.67;9.97;;;22.50;91.80;;;;;;6154714;23;20418;-83
2021/09/14 06:35:56;;;;;;;13.87;10.70;;;22.20;92.50;;;;;;6154960;23;20517;-83
2021/09/14 06:38:24;;;;;;;16.13;10.97;;;21.60;93.00;;;;;;6156244;23;20505;-82
2021/09/14 06:40:51;;;;;;;11.90;9.83;;;21.10;94.20;;;;;;6160611;23;20414;-83
2021/09/14 06:43:18;;;;;;;21.87;11.93;;;20.70;95.10;;;;;;6158473;23;20445;-82
2021/09/14 06:45:46;;;;;;;16.53;11.13;;;20.50;95.80;;;;;;6186948;23;20441;-83
2021/09/14 06:48:16;;;;;;;13.13;11.00;;;20.40;96.20;;;;;;6160154;23;20537;-84
2021/09/14 06:50:43;;;;;;;11.27;9.20;;;20.30;96.70;;;;;;6159506;23;20479;-84
2021/09/14 06:53:11;;;;;;;9.20;8.30;;;20.80;96.70;;;;;;6157570;23;20761;-84
2021/09/14 06:55:38;;;;;;;9.93;9.10;;;21.70;94.70;;;;;;6182184;23;20429;-84
2021/09/14 06:58:05;;;;;;;10.87;8.90;;;22.40;93.60;;;;;;6157090;23;20417;-84
2021/09/14 07:00:32;;;;;;;9.13;8.33;;;23.20;92.10;;;;;;6157530;23;20733;-85
2021/09/14 07:03:00;;;;;;;12.00;8.47;;;22.90;91.20;;;;;;6158813;23;20422;-84
2021/09/14 07:05:27;;;;;;;9.73;8.23;;;22.10;92.30;;;;;;6187194;23;20432;-84
2021/09/14 07:07:56;;;;;;;9.00;8.00;;;21.30;93.70;;;;;;6163934;23;20428;-86
2021/09/14 07:10:24;;;;;;;9.70;8.80;;;20.40;95.10;;;;;;6157539;23;20824;-84
2021/09/14 07:12:53;;;;;;;9.50;8.63;;;20.50;96.00;;;;;;6160599;23;20414;-87
2021/09/14 07:15:21;;;;;;;9.60;8.70;;;21.20;95.20;;;;;;6159666;23;20429;-85
2021/09/14 07:17:48;;;;;;;10.97;8.97;;;22.00;94.50;;;;;;6160277;23;20410;-87
2021/09/14 07:20:16;;;;;;;8.77;7.80;;;22.70;93.10;;;;;;6155833;23;20413;-85
2021/09/14 07:22:43;;;;;;;9.57;8.67;;;22.80;92.90;;;;;;6157774;23;20893;-86
2021/09/14 07:25:11;;;;;;;8.87;8.17;;;22.90;92.30;;;;;;6156119;23;20418;-87
2021/09/14 07:27:39;;;;;;;9.30;8.30;;;22.80;91.70;;;;;;6159127;23;20428;-86
2021/09/14 07:30:07;;;;;;;8.63;7.83;;;22.60;92.60;;;;;;6156914;23;20450;-86
2021/09/14 07:32:35;;;;;;;9.40;6.90;;;22.70;92.30;;;;;;6157164;23;20436;-84
2021/09/14 07:35:05;;;;;;;9.30;7.33;;;23.20;92.00;;;;;;6156525;23;20409;-85
2021/09/14 07:37:32;;;;;;;9.10;7.27;;;23.70;90.90;;;;;;6159547;23;20794;-85
2021/09/14 07:39:59;;;;;;;10.27;7.10;;;23.90;90.40;;;;;;6155037;23;20450;-85
2021/09/14 07:42:26;;;;;;;9.87;8.27;;;23.10;90.70;;;;;;6161216;23;20409;-83
2021/09/14 07:44:54;;;;;;;8.80;7.83;;;23.10;91.30;;;;;;6157658;23;20484;-83
2021/09/14 07:47:24;;;;;;;9.77;8.40;;;23.70;90.60;;;;;;6156295;23;20907;-84
2021/09/14 07:49:51;;;;;;;8.80;7.90;;;24.10;89.70;;;;;;6182699;23;20469;-84
2021/09/14 07:52:18;;;;;;;8.40;7.50;;;24.20;89.70;;;;;;6157007;23;20414;-84
2021/09/14 07:54:45;;;;;;;8.83;6.90;;;24.00;88.60;;;;;;6157208;23;20417;-85
2021/09/14 07:57:12;;;;;;;7.37;6.60;;;24.10;89.10;;;;;;6155908;23;20468;-84
2021/09/14 07:59:39;;;;;;;7.80;7.20;;;24.60;87.00;;;;;;6155626;23;20428;-87
2021/09/14 08:02:06;;;;;;;7.23;6.63;;;25.10;85.80;;;;;;6158552;23;20441;-86
2021/09/14 08:04:34;;;;;;;7.27;6.67;;;25.10;84.80;;;;;;6156409;23;20453;-86
2021/09/14 08:07:03;;;;;;;6.90;6.17;;;25.80;83.50;;;;;;6157031;23;20441;-85
2021/09/14 08:09:31;;;;;;;7.10;6.50;;;27.00;78.80;;;;;;6149040;23;20532;-85
2021/09/14 08:12:22;;;;;;;9.10;6.47;;;28.00;74.50;;;;;;6144868;23;20406;-82
2021/09/14 08:15:01;;;;;;;6.37;5.77;;;28.60;69.70;;;;;;6179920;23;20473;-82
2021/09/14 08:17:38;;;;;;;6.70;6.10;;;28.10;68.90;;;;;;6165440;23;20693;-82
2021/09/14 08:20:10;;;;;;;7.30;6.20;;;27.70;70.10;;;;;;6192855;23;20937;-84
2021/09/14 08:22:56;;;;;;;6.40;5.90;;;28.20;69.30;;;;;;6170013;23;21372;-81
2021/09/14 08:25:30;;;;;;;7.30;6.17;;;28.20;67.90;;;;;;6152000;23;20449;-81
2021/09/14 08:28:12;;;;;;;7.63;6.77;;;26.40;71.90;;;;;;6177051;23;20747;-81
2021/09/14 08:30:44;;;;;;;6.97;6.20;;;24.20;78.90;;;;;;6175920;23;20520;-81
2021/09/14 08:33:32;;;;;;;8.73;6.70;;;23.10;85.00;;;;;;6176889;23;20429;-82
2021/09/14 08:36:01;;;;;;;7.07;6.23;;;22.40;89.10;;;;;;6176275;23;21000;-81
2021/09/14 08:38:34;;;;;;;6.80;6.30;;;22.20;91.00;;;;;;6185180;23;20402;-83
2021/09/14 08:41:07;;;;;;;7.80;7.20;;;21.90;91.40;;;;;;6188032;23;20469;-82
2021/09/14 08:43:38;;;;;;;7.17;6.40;;;21.60;92.70;;;;;;6182146;23;20383;-84
2021/09/14 08:46:12;;;;;;;7.60;6.10;;;21.50;93.30;;;;;;6161263;23;20456;-82
2021/09/14 08:48:45;;;;;;;7.63;6.93;;;21.40;93.70;;;;;;6156170;23;20518;-83
2021/09/14 08:51:18;;;;;;;7.63;6.47;;;21.50;93.50;;;;;;6154545;23;20464;-83
2021/09/14 08:53:45;;;;;;;7.57;6.70;;;21.40;93.80;;;;;;6179451;23;20478;-85
2021/09/14 08:56:25;;;;;;;7.30;6.20;;;21.40;94.10;;;;;;6155185;23;20477;-83
2021/09/14 08:59:06;;;;;;;8.07;7.37;;;21.50;94.30;;;;;;6179846;23;20484;-84
2021/09/14 09:01:36;;;;;;;7.33;6.60;;;21.40;94.30;;;;;;6177524;23;20413;-83
2021/09/14 09:04:15;;;;;;;10.57;7.43;;;21.30;94.60;;;;;;6148576;23;20409;-84
2021/09/14 09:06:50;;;;;;;8.70;6.30;;;21.20;95.30;;;;;;6179098;23;20460;-83
2021/09/14 09:09:18;;;;;;;7.33;6.37;;;21.20;95.30;;;;;;6180781;23;20724;-83
2021/09/14 09:12:08;;;;;;;7.83;6.20;;;21.40;95.10;;;;;;6155215;23;20390;-83
2021/09/14 09:14:43;;;;;;;8.03;6.80;;;21.50;94.90;;;;;;6190386;23;20882;-83
2021/09/14 09:17:16;;;;;;;7.00;6.30;;;21.60;94.80;;;;;;6174977;23;20787;-83
2021/09/14 09:19:57;;;;;;;9.60;7.67;;;21.50;95.10;;;;;;6180289;23;20414;-83
2021/09/14 09:22:30;;;;;;;7.47;6.87;;;21.70;94.90;;;;;;6180957;23;20413;-82
2021/09/14 09:25:05;;;;;;;7.50;5.90;;;21.70;95.00;;;;;;6181395;23;20416;-82
2021/09/14 09:27:34;;;;;;;8.20;5.90;;;21.80;95.10;;;;;;6179745;23;20418;-83
2021/09/14 09:30:21;;;;;;;7.27;6.67;;;21.90;95.00;;;;;;6179349;23;20510;-82
2021/09/14 09:32:53;;;;;;;11.30;6.70;;;21.80;95.00;;;;;;6167833;23;20425;-83
2021/09/14 09:35:42;;;;;;;6.90;6.30;;;21.70;95.30;;;;;;6194446;23;20437;-82
2021/09/14 09:38:19;;;;;;;6.33;5.83;;;22.00;94.90;;;;;;6164272;23;20461;-83
2021/09/14 09:40:49;;;;;;;7.20;5.50;;;22.30;94.60;;;;;;6158127;23;20888;-82
2021/09/14 09:43:48;;;;;;;5.30;4.80;;;23.50;93.20;;;;;;6153886;23;21290;-84
2021/09/14 09:46:22;;;;;;;5.43;4.93;;;25.80;88.30;;;;;;6157661;23;20423;-82
2021/09/14 09:49:02;;;;;;;5.50;4.97;;;27.20;81.20;;;;;;6153614;23;20956;-82
2021/09/14 09:51:47;;;;;;;4.80;4.40;;;27.90;76.90;;;;;;6178301;23;20414;-82
2021/09/14 09:54:21;;;;;;;5.17;4.50;;;28.80;72.70;;;;;;6153233;23;20394;-82
2021/09/14 09:56:57;;;;;;;5.40;4.97;;;30.00;68.50;;;;;;6153442;23;20462;-82
2021/09/14 09:59:40;;;;;;;4.63;4.23;;;29.60;66.70;;;;;;6154205;23;20441;-82
2021/09/14 10:02:29;;;;;;;4.93;4.33;;;28.20;71.50;;;;;;6157819;23;20456;-82
2021/09/14 10:05:22;;;;;;;5.47;4.97;;;28.70;70.40;;;;;;6156060;23;20480;-82
2021/09/14 10:07:54;;;;;;;4.77;4.37;;;29.80;66.60;;;;;;6159946;23;20390;-84
2021/09/14 10:10:45;;;;;;;5.20;4.80;;;30.20;64.00;;;;;;6173963;23;20433;-82
2021/09/14 10:16:36;;;;;;;5.20;4.80;;;28.30;67.40;;;;;;6196804;23;20422;-84
2021/09/14 10:19:25;;;;;;;5.20;4.80;;;27.20;71.90;;;;;;6161085;23;20418;-81
2021/09/14 10:22:03;;;;;;;5.00;4.70;;;26.90;73.20;;;;;;6177675;23;20409;-82
2021/09/14 10:24:31;;;;;;;5.00;4.60;;;26.30;76.50;;;;;;6182834;23;20382;-82
2021/09/14 10:27:13;;;;;;;5.10;4.53;;;26.80;76.40;;;;;;6176628;23;20486;-83
2021/09/14 10:29:42;;;;;;;4.77;4.40;;;27.90;73.40;;;;;;6175832;23;20449;-83
2021/09/14 10:32:11;;;;;;;5.33;4.83;;;28.60;70.00;;;;;;6178658;23;20436;-82
2021/09/14 10:34:42;;;;;;;6.20;5.70;;;28.20;70.20;;;;;;6181871;23;20418;-84
2021/09/14 10:37:10;;;;;;;5.30;4.80;;;27.70;72.20;;;;;;6181314;23;20452;-82
2021/09/14 10:39:40;;;;;;;5.10;4.70;;;27.50;73.00;;;;;;6201041;23;20394;-83
2021/09/14 10:42:13;;;;;;;5.20;4.70;;;27.20;75.20;;;;;;6149145;23;20421;-82
2021/09/14 10:44:40;;;;;;;4.50;4.10;;;27.80;73.50;;;;;;6148449;23;20429;-83
2021/09/14 10:47:11;;;;;;;4.50;4.20;;;27.70;72.90;;;;;;6176047;23;20429;-83
2021/09/14 10:49:53;;;;;;;4.80;4.40;;;28.30;72.80;;;;;;6176364;23;20437;-83
2021/09/14 10:52:34;;;;;;;6.20;4.90;;;28.90;69.20;;;;;;6150106;23;20409;-84
2021/09/14 10:55:11;;;;;;;5.03;4.63;;;28.60;69.40;;;;;;6151779;23;20417;-83
2021/09/14 10:57:43;;;;;;;5.07;4.67;;;28.70;70.60;;;;;;6150515;23;20413;-82
2021/09/14 11:00:13;;;;;;;6.30;4.67;;;28.90;69.50;;;;;;6149002;23;21027;-83
2021/09/14 11:02:40;;;;;;;4.80;4.30;;;29.40;68.70;;;;;;6149401;23;20444;-83
2021/09/14 11:05:09;;;;;;;5.20;4.70;;;29.80;66.10;;;;;;6177410;23;20449;-84
2021/09/14 11:07:36;;;;;;;5.20;4.80;;;29.10;67.70;;;;;;6153269;23;20437;-84
2021/09/14 11:10:11;;;;;;;5.20;4.80;;;29.00;68.60;;;;;;6177599;23;20442;-83
2021/09/14 11:12:45;;;;;;;5.40;4.90;;;28.40;69.60;;;;;;6178247;23;20409;-82
2021/09/14 11:15:12;;;;;;;6.07;4.60;;;28.40;70.40;;;;;;6153486;23;20398;-84
2021/09/14 11:17:39;;;;;;;5.97;5.37;;;27.80;71.70;;;;;;6181816;23;20818;-82
2021/09/14 11:20:30;;;;;;;5.37;4.90;;;27.80;71.90;;;;;;6178279;23;20538;-82
2021/09/14 11:22:59;;;;;;;6.23;5.70;;;27.60;72.90;;;;;;6153177;23;20412;-82
2021/09/14 11:25:28;;;;;;;4.97;4.47;;;27.50;73.60;;;;;;6152258;23;20437;-83
2021/09/14 11:27:57;;;;;;;8.13;5.00;;;27.40;74.10;;;;;;6152453;23;20505;-84
2021/09/14 11:30:26;;;;;;;8.03;4.90;;;27.20;74.70;;;;;;6177956;23;20442;-85
2021/09/14 11:32:54;;;;;;;5.13;4.20;;;27.40;74.80;;;;;;6150943;23;20414;-82
2021/09/14 11:35:28;;;;;;;7.23;5.90;;;27.60;75.40;;;;;;6151961;23;20496;-81
2021/09/14 11:37:58;;;;;;;5.50;5.00;;;28.00;73.60;;;;;;6178250;23;20457;-82
2021/09/14 11:40:33;;;;;;;4.70;4.30;;;28.30;71.50;;;;;;6176475;23;20420;-83
2021/09/14 11:43:23;;;;;;;5.10;4.60;;;28.70;71.00;;;;;;6151467;23;20456;-82
2021/09/14 11:45:52;;;;;;;5.47;5.07;;;28.90;69.80;;;;;;6151709;23;20440;-82
2021/09/14 11:48:24;;;;;;;5.03;4.47;;;28.90;70.10;;;;;;6178271;23;20414;-82
2021/09/14 11:51:15;;;;;;;5.47;4.43;;;29.00;70.30;;;;;;6177820;23;20430;-81
2021/09/14 11:53:48;;;;;;;5.93;5.43;;;29.10;70.20;;;;;;6177757;23;20479;-84
2021/09/14 11:56:17;;;;;;;4.43;3.80;;;29.20;70.20;;;;;;6175689;23;20509;-84
2021/09/14 11:58:48;;;;;;;4.70;4.40;;;29.30;68.70;;;;;;6150621;23;20437;-82
2021/09/14 12:01:18;;;;;;;4.70;4.30;;;29.10;69.50;;;;;;6151462;23;20422;-84
2021/09/14 12:03:54;;;;;;;4.50;4.13;;;29.30;68.90;;;;;;6153222;23;20421;-85
2021/09/14 12:06:29;;;;;;;5.27;4.10;;;28.70;69.70;;;;;;6177043;23;20444;-84
2021/09/14 12:09:17;;;;;;;6.73;5.70;;;28.40;70.90;;;;;;6153661;23;20416;-82
2021/09/14 12:11:44;;;;;;;4.57;4.17;;;28.30;72.00;;;;;;6180355;23;20398;-84
2021/09/14 12:14:18;;;;;;;4.93;3.87;;;28.70;71.20;;;;;;6178895;23;20418;-83
2021/09/14 12:16:45;;;;;;;5.70;4.40;;;28.80;70.00;;;;;;6161295;23;20418;-83
2021/09/14 12:19:13;;;;;;;5.07;4.50;;;28.30;71.60;;;;;;6165233;23;20808;-84
2021/09/14 12:21:40;;;;;;;6.30;4.57;;;28.30;72.70;;;;;;6166724;23;20410;-82
2021/09/14 12:24:09;;;;;;;5.43;4.50;;;28.10;73.10;;;;;;6151238;23;20418;-84
2021/09/14 12:26:41;;;;;;;5.13;4.73;;;28.00;74.00;;;;;;6151760;23;20436;-84
2021/09/14 12:29:11;;;;;;;4.87;4.03;;;28.00;74.30;;;;;;6151506;23;20420;-83
2021/09/14 12:31:38;;;;;;;8.43;5.37;;;27.60;75.00;;;;;;6178735;23;20426;-82
2021/09/14 12:34:06;;;;;;;4.73;4.17;;;27.20;76.70;;;;;;6153497;23;20506;-84
2021/09/14 12:36:33;;;;;;;5.40;4.90;;;27.30;77.20;;;;;;6153443;23;20480;-83
2021/09/14 12:39:00;;;;;;;5.27;4.27;;;27.40;76.80;;;;;;6179094;23;20414;-83
2021/09/14 12:41:29;;;;;;;5.40;4.37;;;27.30;77.00;;;;;;6154210;23;20414;-84
2021/09/14 12:44:02;;;;;;;4.00;3.70;;;27.20;77.60;;;;;;6154305;23;20547;-83
2021/09/14 12:46:29;;;;;;;5.07;4.67;;;27.20;77.40;;;;;;6155812;23;20510;-83
2021/09/14 12:48:56;;;;;;;4.67;4.13;;;27.10;77.00;;;;;;6180128;23;20421;-84
2021/09/14 12:51:23;;;;;;;5.33;4.53;;;27.20;76.80;;;;;;6154016;23;20452;-82
2021/09/14 12:53:50;;;;;;;4.83;4.13;;;27.20;77.10;;;;;;6177821;23;20470;-81
2021/09/14 12:56:18;;;;;;;5.50;4.70;;;27.20;77.40;;;;;;6166255;23;20458;-83
2021/09/14 12:58:48;;;;;;;4.33;3.93;;;27.20;77.70;;;;;;6178637;23;20394;-83
2021/09/14 13:01:15;;;;;;;11.97;10.90;;;27.10;77.90;;;;;;6154029;23;20508;-86
2021/09/14 13:03:42;;;;;;;5.10;4.67;;;27.00;78.50;;;;;;6179630;23;20418;-85
2021/09/14 13:06:11;;;;;;;5.80;4.80;;;27.20;78.20;;;;;;6152346;23;20464;-83
2021/09/14 13:08:38;;;;;;;4.67;4.27;;;27.10;78.30;;;;;;6152019;23;20409;-82
2021/09/14 13:11:05;;;;;;;5.47;4.17;;;27.10;78.90;;;;;;6178335;23;20873;-81
2021/09/14 13:16:17;;;;;;;4.73;4.40;;;27.10;79.00;;;;;;6178694;23;20448;-82
2021/09/14 13:18:50;;;;;;;5.33;4.87;;;27.20;79.20;;;;;;6176477;23;20464;-83
2021/09/14 13:21:18;;;;;;;5.20;4.70;;;27.60;77.80;;;;;;6177051;23;20420;-82
2021/09/14 13:23:48;;;;;;;4.30;4.00;;;28.10;76.80;;;;;;6177214;23;20766;-84
2021/09/14 13:26:15;;;;;;;4.53;4.13;;;28.00;77.10;;;;;;6178978;23;20465;-84
2021/09/14 13:28:42;;;;;;;4.47;4.17;;;28.30;76.30;;;;;;6178215;23;20701;-82
2021/09/14 13:31:08;;;;;;;4.80;4.50;;;28.50;73.90;;;;;;6151948;23;20425;-87
2021/09/14 13:33:36;;;;;;;7.77;3.63;;;28.40;73.70;;;;;;6178563;23;20572;-83
2021/09/14 13:36:03;;;;;;;4.53;4.17;;;28.30;74.40;;;;;;6177440;23;20460;-84
2021/09/14 13:38:31;;;;;;;4.73;4.30;;;28.20;74.50;;;;;;6152343;23;20402;-84
2021/09/14 13:41:03;;;;;;;5.40;4.13;;;28.30;75.40;;;;;;6177472;23;20493;-85
2021/09/14 13:46:10;;;;;;;4.27;3.87;;;28.20;75.30;;;;;;6162267;23;20980;-82
2021/09/14 13:46:20;;;;;;;4.70;4.30;;;28.10;76.40;;;;;;6172392;23;20447;-82
2021/09/14 13:48:52;;;;;;;4.50;4.10;;;27.90;76.40;;;;;;6167573;23;20410;-83
2021/09/14 13:51:26;;;;;;;4.30;4.00;;;27.80;75.70;;;;;;6128399;23;20439;-83
2021/09/14 13:53:53;;;;;;;5.50;3.90;;;27.50;76.60;;;;;;6150639;23;20411;-83
2021/09/14 13:56:22;;;;;;;4.80;4.40;;;27.40;77.50;;;;;;6182255;23;20933;-84
2021/09/14 13:58:51;;;;;;;4.80;4.30;;;27.20;78.00;;;;;;6182331;23;20420;-82
2021/09/14 14:01:19;;;;;;;5.60;4.20;;;27.00;78.50;;;;;;6183534;23;20452;-84
2021/09/14 14:03:47;;;;;;;4.47;4.17;;;26.90;79.30;;;;;;6150834;23;20406;-83
2021/09/14 14:06:15;;;;;;;4.37;3.97;;;26.90;80.10;;;;;;6185607;23;20437;-83
2021/09/14 14:08:43;;;;;;;4.90;4.50;;;26.80;80.90;;;;;;6156263;23;21012;-83